Time;durP1;ratioP1;P1;durP2;ratioP2;P2;SDS_P1;SDS_P2;PMS_P1;PMS_P2;Temp;Humidity;BMP_temperature;BMP_pressure;BME280_temperature;BME280_humidity;BME280_pressure;Samples;Min_cycle;Max_cycle;Signal;HPM_P1;HPM_P2
2023/12/31 00:01:59;;;;;;;;;;;8.60;99.90;;;;;;5048259;28;19924;-74
2023/12/31 00:04:24;;;;;;;;;;;8.60;99.90;;;;;;5046363;28;19925;-74
2023/12/31 00:06:50;;;;;;;;;;;8.60;99.90;;;;;;5046973;28;19920;-74
2023/12/31 00:09:15;;;;;;;;;;;8.70;99.90;;;;;;5046168;28;19924;-74
2023/12/31 00:11:41;;;;;;;;;;;8.60;99.90;;;;;;5048691;28;19987;-74
2023/12/31 00:14:06;;;;;;;;;;;8.60;99.90;;;;;;5031911;28;19921;-74
2023/12/31 00:16:33;;;;;;;;;;;8.60;99.90;;;;;;5048300;28;20015;-75
2023/12/31 00:18:59;;;;;;;;;;;8.60;99.90;;;;;;5031648;28;20009;-74
2023/12/31 00:21:24;;;;;;;;;;;8.70;99.90;;;;;;5028519;28;20009;-74
2023/12/31 00:23:50;;;;;;;;;;;8.70;99.90;;;;;;5030071;28;20000;-74
2023/12/31 00:26:15;;;;;;;;;;;8.70;99.90;;;;;;5048851;28;19924;-74
2023/12/31 00:28:41;;;;;;;;;;;8.70;99.90;;;;;;5030996;28;19972;-73
2023/12/31 00:31:06;;;;;;;;;;;8.70;99.90;;;;;;5048328;28;19925;-74
2023/12/31 00:33:32;;;;;;;;;;;8.70;99.90;;;;;;5029476;28;19927;-74
2023/12/31 00:35:58;;;;;;;;;;;8.70;99.90;;;;;;5029974;28;19951;-74
2023/12/31 00:38:24;;;;;;;;;;;8.70;99.90;;;;;;5047905;28;20015;-74
2023/12/31 00:40:49;;;;;;;;;;;8.70;99.90;;;;;;5026594;28;20061;-73
2023/12/31 00:43:15;;;;;;;;;;;8.70;99.90;;;;;;5028400;28;19924;-74
2023/12/31 00:45:40;;;;;;;;;;;8.80;99.90;;;;;;5030583;28;19921;-74
2023/12/31 00:48:06;;;;;;;;;;;8.80;99.90;;;;;;5046745;28;19928;-74
2023/12/31 00:50:32;;;;;;;;;;;8.80;99.90;;;;;;5027207;28;20058;-74
2023/12/31 00:52:57;;;;;;;;;;;8.80;99.90;;;;;;5029942;28;19928;-75
2023/12/31 00:55:23;;;;;;;;;;;9.10;99.90;;;;;;5031326;28;19924;-74
2023/12/31 00:57:49;;;;;;;;;;;8.80;99.90;;;;;;5028822;28;19936;-73
2023/12/31 01:00:14;;;;;;;;;;;8.80;99.90;;;;;;5029844;28;19926;-74
2023/12/31 01:02:40;;;;;;;;;;;8.80;99.90;;;;;;5047910;28;19925;-74
2023/12/31 01:05:06;;;;;;;;;;;8.80;99.90;;;;;;5030100;28;19923;-73
2023/12/31 01:07:31;;;;;;;;;;;8.80;99.90;;;;;;5030471;28;19921;-73
2023/12/31 01:09:57;;;;;;;;;;;8.80;99.90;;;;;;5046893;28;20398;-74
2023/12/31 01:12:23;;;;;;;;;;;8.70;99.90;;;;;;5029228;28;19921;-74
2023/12/31 01:14:48;;;;;;;;;;;8.80;99.90;;;;;;5046756;28;19928;-74
2023/12/31 01:17:14;;;;;;;;;;;8.70;99.90;;;;;;5048087;28;19916;-74
2023/12/31 01:19:39;;;;;;;;;;;8.70;99.90;;;;;;5045436;28;20033;-75
2023/12/31 01:22:05;;;;;;;;;;;8.70;99.90;;;;;;5047837;28;19947;-74
2023/12/31 01:24:31;;;;;;;;;;;8.70;99.90;;;;;;5039142;28;19929;-74
2023/12/31 01:26:56;;;;;;;;;;;8.70;99.90;;;;;;5044444;28;19929;-74
2023/12/31 01:29:23;;;;;;;;;;;8.70;99.90;;;;;;5047189;28;19920;-74
2023/12/31 01:31:49;;;;;;;;;;;8.70;99.90;;;;;;5048858;28;20003;-73
2023/12/31 01:34:14;;;;;;;;;;;8.70;99.90;;;;;;5043277;28;20432;-73
2023/12/31 01:36:40;;;;;;;;;;;8.70;99.90;;;;;;5055820;28;19974;-74
2023/12/31 01:39:07;;;;;;;;;;;8.70;99.90;;;;;;5043019;28;21290;-74
2023/12/31 01:41:32;;;;;;;;;;;8.80;99.90;;;;;;5041452;28;19921;-74
2023/12/31 01:44:02;;;;;;;;;;;8.60;99.90;;;;;;5043672;28;19923;-74
2023/12/31 01:46:28;;;;;;;;;;;8.60;99.90;;;;;;5057795;28;20729;-74
2023/12/31 01:48:55;;;;;;;;;;;8.60;99.90;;;;;;5042349;28;19928;-75
2023/12/31 01:51:20;;;;;;;;;;;8.60;99.90;;;;;;5042733;28;19921;-72
2023/12/31 01:53:46;;;;;;;;;;;8.60;99.90;;;;;;5043747;28;19921;-75
2023/12/31 01:56:12;;;;;;;;;;;8.50;99.90;;;;;;5034755;28;19921;-73
2023/12/31 01:58:38;;;;;;;;;;;8.50;99.90;;;;;;5044908;28;20405;-74
2023/12/31 02:01:04;;;;;;;;;;;8.40;99.90;;;;;;5049811;28;19925;-75
2023/12/31 02:03:30;;;;;;;;;;;8.40;99.90;;;;;;5050768;28;19921;-74
2023/12/31 02:05:56;;;;;;;;;;;8.50;99.90;;;;;;5051109;28;19921;-74
2023/12/31 02:08:23;;;;;;;;;;;8.40;99.90;;;;;;5049367;28;20465;-73
2023/12/31 02:10:50;;;;;;;;;;;8.40;99.90;;;;;;5046764;28;19936;-75
2023/12/31 02:13:16;;;;;;;;;;;8.30;99.90;;;;;;5049931;28;20352;-74
2023/12/31 02:15:41;;;;;;;;;;;8.30;99.90;;;;;;5049061;28;19979;-73
2023/12/31 02:18:07;;;;;;;;;;;8.30;99.90;;;;;;5048298;28;20348;-74
2023/12/31 02:20:32;;;;;;;;;;;8.30;99.90;;;;;;5047766;28;20303;-74
2023/12/31 02:22:58;;;;;;;;;;;8.30;99.90;;;;;;5045039;28;19974;-74
2023/12/31 02:25:24;;;;;;;;;;;8.30;99.90;;;;;;5050316;28;19927;-74
2023/12/31 02:27:51;;;;;;;;;;;8.30;99.90;;;;;;5047989;28;19920;-74
2023/12/31 02:30:16;;;;;;;;;;;8.30;99.90;;;;;;5049776;28;19936;-74
2023/12/31 02:32:42;;;;;;;;;;;8.30;99.90;;;;;;5049275;28;19921;-74
2023/12/31 02:35:08;;;;;;;;;;;8.20;99.90;;;;;;5048111;28;19925;-74
2023/12/31 02:37:33;;;;;;;;;;;8.20;99.90;;;;;;5048767;28;19921;-73
2023/12/31 02:39:59;;;;;;;;;;;8.20;99.90;;;;;;5045787;28;19921;-74
2023/12/31 02:42:24;;;;;;;;;;;8.20;99.90;;;;;;5047194;28;19996;-74
2023/12/31 02:44:50;;;;;;;;;;;8.20;99.90;;;;;;5040904;28;20015;-73
2023/12/31 02:47:15;;;;;;;;;;;8.40;99.90;;;;;;5049708;28;19959;-74
2023/12/31 02:49:41;;;;;;;;;;;8.10;99.90;;;;;;5045159;28;19940;-74
2023/12/31 02:52:06;;;;;;;;;;;8.00;99.90;;;;;;5046857;28;19920;-74
2023/12/31 02:54:32;;;;;;;;;;;8.10;99.90;;;;;;5048804;28;19929;-74
2023/12/31 02:56:58;;;;;;;;;;;8.10;99.90;;;;;;5047492;28;19921;-74
2023/12/31 02:59:23;;;;;;;;;;;8.10;99.90;;;;;;5046724;28;20050;-74
2023/12/31 03:01:49;;;;;;;;;;;8.00;99.90;;;;;;5038785;28;19935;-73
2023/12/31 03:04:15;;;;;;;;;;;8.00;99.90;;;;;;5044359;28;20419;-73
2023/12/31 03:06:40;;;;;;;;;;;8.00;99.90;;;;;;5047074;28;20486;-74
2023/12/31 03:09:06;;;;;;;;;;;8.00;99.90;;;;;;5048572;28;19983;-74
2023/12/31 03:11:33;;;;;;;;;;;7.90;99.90;;;;;;5047567;28;20395;-73
2023/12/31 03:13:59;;;;;;;;;;;8.00;99.90;;;;;;5047201;28;19920;-73
2023/12/31 03:16:25;;;;;;;;;;;8.00;99.90;;;;;;5051773;28;19929;-74
2023/12/31 03:18:54;;;;;;;;;;;7.90;99.90;;;;;;5050930;28;19928;-74
2023/12/31 03:21:19;;;;;;;;;;;7.90;99.90;;;;;;5051861;28;20283;-74
2023/12/31 03:23:45;;;;;;;;;;;8.00;99.90;;;;;;5050970;28;19925;-74
2023/12/31 03:26:11;;;;;;;;;;;7.90;99.90;;;;;;5049398;28;20378;-74
2023/12/31 03:28:36;;;;;;;;;;;7.90;99.90;;;;;;5052038;28;19920;-74
2023/12/31 03:31:03;;;;;;;;;;;7.80;99.90;;;;;;5050961;28;19916;-74
2023/12/31 03:33:29;;;;;;;;;;;7.90;99.90;;;;;;5051560;28;19920;-74
2023/12/31 03:35:54;;;;;;;;;;;8.00;99.90;;;;;;5052416;28;19931;-74
2023/12/31 03:38:20;;;;;;;;;;;7.80;99.90;;;;;;5049212;28;19927;-73
2023/12/31 03:40:45;;;;;;;;;;;7.90;99.90;;;;;;5043870;28;20322;-74
2023/12/31 03:43:11;;;;;;;;;;;7.80;99.90;;;;;;5044913;28;19920;-74
2023/12/31 03:45:36;;;;;;;;;;;7.80;99.90;;;;;;5050550;28;19960;-74
2023/12/31 03:48:02;;;;;;;;;;;7.80;99.90;;;;;;5049183;28;19925;-74
2023/12/31 03:50:27;;;;;;;;;;;7.80;99.90;;;;;;5048913;28;19916;-74
2023/12/31 03:52:53;;;;;;;;;;;7.80;99.90;;;;;;5051288;28;19927;-74
2023/12/31 03:55:18;;;;;;;;;;;7.80;99.90;;;;;;5053180;28;19920;-74
2023/12/31 03:57:44;;;;;;;;;;;7.80;99.90;;;;;;5050143;28;19920;-74
2023/12/31 04:00:10;;;;;;;;;;;7.70;99.90;;;;;;5043658;28;19927;-73
2023/12/31 04:02:35;;;;;;;;;;;7.80;99.90;;;;;;5052675;28;19923;-73
2023/12/31 04:05:02;;;;;;;;;;;7.80;99.90;;;;;;5048872;28;19924;-74
2023/12/31 04:07:28;;;;;;;;;;;7.80;99.90;;;;;;5044552;28;19927;-73
2023/12/31 04:09:54;;;;;;;;;;;7.80;99.90;;;;;;5046681;28;20338;-74
2023/12/31 04:12:19;;;;;;;;;;;7.80;99.90;;;;;;5041177;28;19982;-73
2023/12/31 04:14:45;;;;;;;;;;;7.80;99.90;;;;;;5048882;28;19973;-75
2023/12/31 04:17:10;;;;;;;;;;;7.80;99.90;;;;;;5052077;28;20272;-73
2023/12/31 04:19:36;;;;;;;;;;;7.80;99.90;;;;;;5050915;28;20007;-74
2023/12/31 04:22:01;;;;;;;;;;;7.80;99.90;;;;;;5050083;28;19920;-74
2023/12/31 04:24:27;;;;;;;;;;;7.70;99.90;;;;;;5047166;28;19920;-73
2023/12/31 04:26:52;;;;;;;;;;;7.80;99.90;;;;;;5051932;28;20018;-74
2023/12/31 04:29:18;;;;;;;;;;;7.80;99.90;;;;;;5048951;28;19924;-73
2023/12/31 04:31:45;;;;;;;;;;;7.80;99.90;;;;;;5050158;28;19920;-74
2023/12/31 04:34:10;;;;;;;;;;;7.80;99.90;;;;;;5050133;28;19920;-74
2023/12/31 04:36:36;;;;;;;;;;;7.80;99.90;;;;;;5049500;28;19927;-73
2023/12/31 04:39:02;;;;;;;;;;;7.80;99.90;;;;;;5048809;28;19928;-74
2023/12/31 04:41:28;;;;;;;;;;;7.90;99.90;;;;;;5051375;28;20057;-74
2023/12/31 04:43:54;;;;;;;;;;;7.80;99.90;;;;;;5044900;28;19920;-74
2023/12/31 04:46:20;;;;;;;;;;;7.80;99.90;;;;;;5047211;28;19939;-73
2023/12/31 04:48:46;;;;;;;;;;;7.90;99.90;;;;;;5049301;28;20062;-73
2023/12/31 04:51:22;;;;;;;;;;;7.90;99.90;;;;;;5049950;28;19920;-73
2023/12/31 04:53:48;;;;;;;;;;;7.90;99.90;;;;;;5033699;28;20015;-73
2023/12/31 04:56:20;;;;;;;;;;;7.90;99.90;;;;;;5049358;28;20003;-74
2023/12/31 04:58:47;;;;;;;;;;;7.90;99.90;;;;;;5048768;28;19936;-73
2023/12/31 05:01:12;;;;;;;;;;;7.90;99.90;;;;;;5047970;28;19920;-74
2023/12/31 05:03:38;;;;;;;;;;;7.90;99.90;;;;;;5049639;28;19927;-74
2023/12/31 05:06:03;;;;;;;;;;;7.80;99.90;;;;;;5041125;28;19921;-73
2023/12/31 05:08:29;;;;;;;;;;;7.80;99.90;;;;;;5050407;28;19959;-73
2023/12/31 05:10:55;;;;;;;;;;;7.90;99.90;;;;;;5048700;28;20065;-73
2023/12/31 05:13:20;;;;;;;;;;;7.90;99.90;;;;;;5045610;28;19973;-73
2023/12/31 05:15:46;;;;;;;;;;;7.90;99.90;;;;;;5045509;28;19921;-73
2023/12/31 05:18:11;;;;;;;;;;;7.80;99.90;;;;;;5044017;28;19929;-74
2023/12/31 05:20:37;;;;;;;;;;;7.90;99.90;;;;;;5046071;28;20015;-74
2023/12/31 05:23:02;;;;;;;;;;;7.80;99.90;;;;;;5045955;28;19924;-73
2023/12/31 05:25:28;;;;;;;;;;;7.90;99.90;;;;;;5038598;28;19960;-74
2023/12/31 05:27:53;;;;;;;;;;;7.90;99.90;;;;;;5038645;28;19960;-74
2023/12/31 05:30:20;;;;;;;;;;;7.90;99.90;;;;;;5042435;28;19920;-74
2023/12/31 05:32:45;;;;;;;;;;;7.90;99.90;;;;;;5043181;28;20285;-72
2023/12/31 05:35:11;;;;;;;;;;;7.90;99.90;;;;;;5044902;28;20038;-73
2023/12/31 05:37:36;;;;;;;;;;;8.10;99.90;;;;;;5046405;28;19927;-74
2023/12/31 05:40:04;;;;;;;;;;;7.90;99.90;;;;;;5044602;28;20101;-73
2023/12/31 05:42:29;;;;;;;;;;;7.90;99.90;;;;;;5045866;28;19960;-76
2023/12/31 05:44:55;;;;;;;;;;;7.90;99.90;;;;;;5040530;28;19983;-73
2023/12/31 05:47:20;;;;;;;;;;;7.90;99.90;;;;;;5046906;28;19994;-73
2023/12/31 05:49:46;;;;;;;;;;;7.90;99.90;;;;;;5045317;28;20662;-73
2023/12/31 05:52:11;;;;;;;;;;;7.90;99.90;;;;;;5046043;28;19920;-74
2023/12/31 05:54:38;;;;;;;;;;;7.90;99.90;;;;;;5045494;28;20097;-73
2023/12/31 05:57:04;;;;;;;;;;;7.90;99.90;;;;;;5045463;28;19921;-74
2023/12/31 05:59:30;;;;;;;;;;;7.90;99.90;;;;;;5041147;28;20308;-74
2023/12/31 06:01:55;;;;;;;;;;;7.90;99.90;;;;;;5032610;28;19921;-74
2023/12/31 06:04:21;;;;;;;;;;;8.00;99.90;;;;;;5043455;28;20718;-74
2023/12/31 06:06:46;;;;;;;;;;;8.00;99.90;;;;;;5045469;28;20399;-73
2023/12/31 06:09:12;;;;;;;;;;;8.00;99.90;;;;;;5045083;28;19917;-73
2023/12/31 06:11:38;;;;;;;;;;;7.90;99.90;;;;;;5045738;28;20019;-73
2023/12/31 06:14:04;;;;;;;;;;;8.00;99.90;;;;;;5056998;28;19921;-74
2023/12/31 06:16:29;;;;;;;;;;;8.00;99.90;;;;;;5047097;28;19998;-73
2023/12/31 06:18:55;;;;;;;;;;;8.40;99.90;;;;;;5045356;28;19921;-74
2023/12/31 06:21:20;;;;;;;;;;;8.00;99.90;;;;;;5046554;28;19925;-73
2023/12/31 06:23:46;;;;;;;;;;;7.90;99.90;;;;;;5047060;28;20352;-72
2023/12/31 06:26:11;;;;;;;;;;;8.00;99.90;;;;;;5041815;28;19921;-73
2023/12/31 06:28:37;;;;;;;;;;;8.00;99.90;;;;;;5043412;28;19952;-74
2023/12/31 06:31:02;;;;;;;;;;;8.00;99.90;;;;;;5033310;28;19921;-75
2023/12/31 06:33:28;;;;;;;;;;;8.00;99.90;;;;;;5040686;28;19921;-74
2023/12/31 06:35:54;;;;;;;;;;;8.10;99.90;;;;;;5044929;28;19984;-73
2023/12/31 06:38:19;;;;;;;;;;;8.00;99.90;;;;;;5044451;28;19971;-74
2023/12/31 06:40:45;;;;;;;;;;;8.00;99.90;;;;;;5043247;28;19928;-75
2023/12/31 06:43:11;;;;;;;;;;;8.00;99.90;;;;;;5044981;28;19982;-73
2023/12/31 06:45:36;;;;;;;;;;;8.10;99.90;;;;;;5045493;28;19928;-74
2023/12/31 06:48:02;;;;;;;;;;;8.00;99.90;;;;;;5048620;28;20311;-73
2023/12/31 06:50:28;;;;;;;;;;;8.10;99.90;;;;;;5048996;28;19952;-73
2023/12/31 06:52:53;;;;;;;;;;;8.00;99.90;;;;;;5050244;28;19974;-73
2023/12/31 06:55:19;;;;;;;;;;;8.10;99.90;;;;;;5048720;28;19921;-73
2023/12/31 06:57:44;;;;;;;;;;;8.10;99.90;;;;;;5042721;28;20368;-73
2023/12/31 07:00:10;;;;;;;;;;;8.10;99.90;;;;;;5056936;28;19990;-74
2023/12/31 07:02:37;;;;;;;;;;;8.10;99.90;;;;;;5045859;28;19936;-77
2023/12/31 07:05:03;;;;;;;;;;;8.10;99.90;;;;;;5044170;28;19921;-76
2023/12/31 07:07:29;;;;;;;;;;;8.10;99.90;;;;;;5044222;28;19917;-77
2023/12/31 07:09:54;;;;;;;;;;;8.10;99.90;;;;;;5044257;28;19928;-76
2023/12/31 07:12:20;;;;;;;;;;;8.10;99.90;;;;;;5045489;28;19920;-77
2023/12/31 07:14:45;;;;;;;;;;;8.10;99.90;;;;;;5042872;28;19928;-77
2023/12/31 07:17:11;;;;;;;;;;;8.20;99.90;;;;;;5045515;28;19921;-74
2023/12/31 07:19:37;;;;;;;;;;;8.20;99.90;;;;;;5048888;28;19970;-77
2023/12/31 07:22:03;;;;;;;;;;;8.20;99.90;;;;;;5048949;28;19970;-77
2023/12/31 07:24:28;;;;;;;;;;;8.20;99.90;;;;;;5043285;28;19920;-77
2023/12/31 07:26:54;;;;;;;;;;;8.20;99.90;;;;;;5044156;28;19925;-76
2023/12/31 07:29:19;;;;;;;;;;;8.20;99.90;;;;;;5041775;28;19929;-77
2023/12/31 07:31:45;;;;;;;;;;;8.20;99.90;;;;;;5046971;28;20059;-77
2023/12/31 07:34:11;;;;;;;;;;;8.20;99.90;;;;;;5047476;28;19932;-77
2023/12/31 07:36:36;;;;;;;;;;;8.20;99.90;;;;;;5049871;28;19928;-77
2023/12/31 07:39:03;;;;;;;;;;;8.20;99.90;;;;;;5047375;28;19927;-77
2023/12/31 07:41:29;;;;;;;;;;;8.20;99.90;;;;;;5044381;28;19925;-77
2023/12/31 07:43:54;;;;;;;;;;;8.20;99.90;;;;;;5041009;28;19920;-76
2023/12/31 07:46:20;;;;;;;;;;;8.30;99.90;;;;;;5042249;28;19974;-76
2023/12/31 07:48:45;;;;;;;;;;;8.30;99.90;;;;;;5047698;28;19921;-77
2023/12/31 07:51:11;;;;;;;;;;;8.30;99.90;;;;;;5043566;28;19921;-78
2023/12/31 07:53:37;;;;;;;;;;;8.30;99.90;;;;;;5044067;28;19928;-77
2023/12/31 07:56:02;;;;;;;;;;;8.30;99.90;;;;;;5041394;28;20015;-78
2023/12/31 07:58:28;;;;;;;;;;;8.30;99.90;;;;;;5046334;28;20014;-77
2023/12/31 08:00:55;;;;;;;;;;;8.40;99.90;;;;;;5045828;28;20344;-76
2023/12/31 08:03:21;;;;;;;;;;;8.40;99.90;;;;;;5046758;28;20383;-77
2023/12/31 08:05:47;;;;;;;;;;;8.40;99.90;;;;;;5045284;28;20019;-76
2023/12/31 08:08:12;;;;;;;;;;;8.40;99.90;;;;;;5047304;28;20505;-77
2023/12/31 08:10:40;;;;;;;;;;;8.40;99.90;;;;;;5048639;28;20332;-77
2023/12/31 08:13:09;;;;;;;;;;;8.40;99.90;;;;;;5054919;28;19924;-75
2023/12/31 08:15:34;;;;;;;;;;;8.50;99.90;;;;;;5047282;28;20012;-75
2023/12/31 08:18:00;;;;;;;;;;;8.50;99.90;;;;;;5050397;28;20410;-75
2023/12/31 08:20:26;;;;;;;;;;;8.50;99.90;;;;;;5042520;28;20349;-77
2023/12/31 08:22:52;;;;;;;;;;;8.50;99.90;;;;;;5040419;28;19921;-76
2023/12/31 08:25:18;;;;;;;;;;;8.50;99.90;;;;;;5051083;28;20017;-75
2023/12/31 08:27:43;;;;;;;;;;;8.50;99.90;;;;;;5040894;28;20019;-76
2023/12/31 08:30:09;;;;;;;;;;;8.50;99.90;;;;;;5043957;28;19925;-77
2023/12/31 08:32:35;;;;;;;;;;;8.50;99.90;;;;;;5050920;28;19927;-76
2023/12/31 08:35:00;;;;;;;;;;;8.50;99.90;;;;;;5045251;28;19924;-75
2023/12/31 08:37:26;;;;;;;;;;;8.50;99.90;;;;;;5046538;28;19916;-76
2023/12/31 08:39:51;;;;;;;;;;;8.60;99.90;;;;;;5046686;28;19928;-76
2023/12/31 08:42:17;;;;;;;;;;;8.60;99.90;;;;;;5050062;28;19924;-75
2023/12/31 08:44:43;;;;;;;;;;;8.60;99.90;;;;;;5049187;28;19963;-77
2023/12/31 08:47:09;;;;;;;;;;;8.60;99.90;;;;;;5045375;28;19931;-75
2023/12/31 08:49:34;;;;;;;;;;;8.50;99.90;;;;;;5046206;28;19970;-76
2023/12/31 08:52:00;;;;;;;;;;;8.60;99.90;;;;;;5049805;28;19963;-76
2023/12/31 08:54:26;;;;;;;;;;;8.60;99.90;;;;;;5049631;28;19921;-77
2023/12/31 08:56:51;;;;;;;;;;;8.60;99.90;;;;;;5028392;28;20370;-76
2023/12/31 08:59:17;;;;;;;;;;;8.60;99.90;;;;;;5039855;28;20002;-77
2023/12/31 09:01:42;;;;;;;;;;;8.70;99.90;;;;;;5047610;28;20326;-77
2023/12/31 09:04:10;;;;;;;;;;;8.60;99.90;;;;;;5041778;28;20570;-77
2023/12/31 09:06:36;;;;;;;;;;;8.60;99.90;;;;;;5048476;28;19927;-76
2023/12/31 09:09:01;;;;;;;;;;;8.70;99.90;;;;;;5044620;28;19920;-76
2023/12/31 09:11:27;;;;;;;;;;;8.70;99.90;;;;;;5045242;28;19928;-80
2023/12/31 09:13:52;;;;;;;;;;;8.70;99.90;;;;;;5042699;28;19920;-79
2023/12/31 09:16:18;;;;;;;;;;;8.70;99.90;;;;;;5049457;28;19943;-80
2023/12/31 09:18:43;;;;;;;;;;;8.80;99.90;;;;;;5046340;28;19920;-83
2023/12/31 09:21:09;;;;;;;;;;;8.80;99.90;;;;;;5049105;28;19927;-81
2023/12/31 09:23:35;;;;;;;;;;;8.80;99.90;;;;;;5048347;28;19962;-82
2023/12/31 09:26:00;;;;;;;;;;;8.80;99.90;;;;;;5041080;28;19924;-82
2023/12/31 09:28:28;;;;;;;;;;;8.80;99.90;;;;;;5049664;28;19931;-83
2023/12/31 09:30:53;;;;;;;;;;;8.80;99.90;;;;;;5041950;28;19924;-81
2023/12/31 09:33:19;;;;;;;;;;;8.90;99.90;;;;;;5047348;28;19989;-81
2023/12/31 09:35:44;;;;;;;;;;;8.90;99.90;;;;;;5049026;28;19928;-82
2023/12/31 09:38:10;;;;;;;;;;;8.90;99.90;;;;;;5048530;28;20444;-83
2023/12/31 09:40:35;;;;;;;;;;;8.90;99.90;;;;;;5041385;28;19926;-83
2023/12/31 09:43:02;;;;;;;;;;;8.90;99.90;;;;;;5033098;28;19925;-83
2023/12/31 09:45:30;;;;;;;;;;;8.70;99.90;;;;;;5045418;28;19927;-82
2023/12/31 09:47:57;;;;;;;;;;;8.90;99.90;;;;;;5040855;28;19920;-83
2023/12/31 09:50:23;;;;;;;;;;;9.00;99.90;;;;;;5041411;28;19921;-82
2023/12/31 09:52:49;;;;;;;;;;;9.00;99.90;;;;;;5050659;28;20449;-83
2023/12/31 09:55:15;;;;;;;;;;;8.90;99.90;;;;;;5082165;28;20634;-84
2023/12/31 09:57:51;;;;;;;;;;;9.00;99.90;;;;;;5050678;28;19921;-80
2023/12/31 10:00:17;;;;;;;;;;;9.00;99.90;;;;;;5047226;28;19920;-81
2023/12/31 10:02:43;;;;;;;;;;;9.00;99.90;;;;;;5038384;28;19921;-83
2023/12/31 10:05:09;;;;;;;;;;;9.00;99.90;;;;;;5036407;28;19924;-85
2023/12/31 10:07:35;;;;;;;;;;;9.10;99.90;;;;;;5043075;28;20343;-82
2023/12/31 10:10:02;;;;;;;;;;;9.10;99.90;;;;;;5080395;28;19978;-82
2023/12/31 10:12:28;;;;;;;;;;;9.90;99.90;;;;;;5074560;28;19974;-81
2023/12/31 10:14:54;;;;;;;;;;;9.10;99.90;;;;;;5049028;28;19928;-82
2023/12/31 10:17:20;;;;;;;;;;;9.20;99.90;;;;;;5051336;28;19927;-81
2023/12/31 10:19:46;;;;;;;;;;;9.20;99.90;;;;;;5049190;28;19924;-84
2023/12/31 10:22:12;;;;;;;;;;;9.20;99.90;;;;;;5052291;28;19920;-84
2023/12/31 10:24:37;;;;;;;;;;;9.20;99.90;;;;;;5041571;28;19924;-83
2023/12/31 10:27:04;;;;;;;;;;;9.20;99.90;;;;;;5052744;28;19921;-81
2023/12/31 10:29:33;;;;;;;;;;;9.30;99.90;;;;;;5053132;28;19963;-82
2023/12/31 10:31:59;;;;;;;;;;;9.30;99.90;;;;;;5070108;28;20302;-82
2023/12/31 10:34:24;;;;;;;;;;;9.30;99.90;;;;;;5047745;28;19924;-80
2023/12/31 10:36:59;;;;;;;;;;;9.30;99.90;;;;;;5046257;28;20357;-81
2023/12/31 10:39:29;;;;;;;;;;;9.40;99.90;;;;;;5050373;28;19932;-83
2023/12/31 10:42:03;;;;;;;;;;;9.50;99.90;;;;;;5048590;28;19920;-82
2023/12/31 10:44:31;;;;;;;;;;;9.50;99.90;;;;;;5047938;28;20010;-81
2023/12/31 10:46:58;;;;;;;;;;;9.50;99.90;;;;;;5051346;28;19920;-80
2023/12/31 10:49:26;;;;;;;;;;;9.60;99.90;;;;;;5075803;28;19927;-80
2023/12/31 10:51:52;;;;;;;;;;;9.50;99.90;;;;;;5047588;28;19974;-81
2023/12/31 10:54:28;;;;;;;;;;;9.60;99.90;;;;;;5047391;28;19964;-81
2023/12/31 10:56:54;;;;;;;;;;;9.60;99.90;;;;;;5047328;28;20518;-81
2023/12/31 10:59:20;;;;;;;;;;;9.60;99.90;;;;;;5052569;28;20010;-82
2023/12/31 11:01:45;;;;;;;;;;;9.60;99.90;;;;;;5048035;28;20011;-80
2023/12/31 11:04:11;;;;;;;;;;;9.60;99.90;;;;;;5050009;28;19916;-84
2023/12/31 11:06:38;;;;;;;;;;;9.70;99.90;;;;;;5049086;28;19970;-79
2023/12/31 11:09:04;;;;;;;;;;;9.70;99.90;;;;;;5045781;28;20307;-79
2023/12/31 11:11:30;;;;;;;;;;;9.70;99.90;;;;;;5081149;28;19926;-81
2023/12/31 11:13:57;;;;;;;;;;;9.70;99.90;;;;;;5043728;28;20584;-78
2023/12/31 11:16:26;;;;;;;;;;;9.80;99.90;;;;;;5036319;28;20003;-79
2023/12/31 11:18:54;;;;;;;;;;;9.70;99.90;;;;;;5031592;28;19921;-78
2023/12/31 11:21:28;;;;;;;;;;;9.80;99.90;;;;;;5044698;28;19928;-79
2023/12/31 11:24:00;;;;;;;;;;;9.70;99.90;;;;;;5044044;28;19917;-78
2023/12/31 11:26:25;;;;;;;;;;;9.80;99.90;;;;;;5048613;28;19982;-80
2023/12/31 11:28:53;;;;;;;;;;;9.70;99.90;;;;;;5050087;28;19967;-77
2023/12/31 11:31:19;;;;;;;;;;;9.70;99.90;;;;;;5045403;28;19975;-80
2023/12/31 11:33:45;;;;;;;;;;;9.80;99.90;;;;;;5043701;28;19959;-77
2023/12/31 11:36:11;;;;;;;;;;;9.70;99.90;;;;;;5040434;28;20006;-78
2023/12/31 11:38:56;;;;;;;;;;;9.70;99.90;;;;;;5045556;28;20392;-79
2023/12/31 11:41:25;;;;;;;;;;;9.60;99.90;;;;;;5039890;28;19932;-78
2023/12/31 11:43:51;;;;;;;;;;;9.60;99.90;;;;;;5047710;28;19927;-78
2023/12/31 11:46:37;;;;;;;;;;;9.60;99.90;;;;;;5042969;28;19929;-77
2023/12/31 11:49:03;;;;;;;;;;;9.50;99.90;;;;;;5048583;28;19975;-78
2023/12/31 11:51:29;;;;;;;;;;;9.50;99.90;;;;;;5040746;28;20380;-78
2023/12/31 11:53:56;;;;;;;;;;;9.40;99.90;;;;;;5047965;28;19927;-79
2023/12/31 11:56:24;;;;;;;;;;;9.30;99.90;;;;;;5048522;28;19978;-78
2023/12/31 11:58:50;;;;;;;;;;;9.30;99.90;;;;;;5045374;28;19925;-79
2023/12/31 12:01:16;;;;;;;;;;;9.20;99.90;;;;;;5048677;28;19932;-79
2023/12/31 12:03:42;;;;;;;;;;;9.10;99.90;;;;;;5047374;28;20008;-77
2023/12/31 12:06:07;;;;;;;;;;;9.10;99.90;;;;;;5045092;28;20016;-79
2023/12/31 12:08:33;;;;;;;;;;;9.00;99.90;;;;;;5043700;28;19924;-78
2023/12/31 12:11:02;;;;;;;;;;;9.00;99.90;;;;;;5047029;28;19998;-78
2023/12/31 12:13:27;;;;;;;;;;;9.00;99.90;;;;;;5046901;28;19920;-78
2023/12/31 12:15:53;;;;;;;;;;;8.90;99.90;;;;;;5049129;28;20435;-76
2023/12/31 12:18:21;;;;;;;;;;;8.90;99.90;;;;;;5043730;28;19924;-75
2023/12/31 12:20:46;;;;;;;;;;;8.90;99.90;;;;;;5039626;28;19928;-76
2023/12/31 12:23:15;;;;;;;;;;;8.80;99.90;;;;;;5035672;28;19985;-77
2023/12/31 12:25:42;;;;;;;;;;;8.80;99.90;;;;;;5031195;28;20079;-76
2023/12/31 12:28:07;;;;;;;;;;;8.80;99.90;;;;;;5045541;28;20004;-76
2023/12/31 12:30:33;;;;;;;;;;;8.70;99.90;;;;;;5048261;28;20012;-77
2023/12/31 12:33:02;;;;;;;;;;;8.70;99.90;;;;;;5047731;28;19920;-78
2023/12/31 12:35:28;;;;;;;;;;;8.60;99.90;;;;;;5048830;28;19917;-77
2023/12/31 12:37:54;;;;;;;;;;;8.70;99.90;;;;;;5048575;28;19921;-77
2023/12/31 12:40:20;;;;;;;;;;;8.80;99.90;;;;;;5042766;28;19928;-79
2023/12/31 12:42:46;;;;;;;;;;;9.00;99.90;;;;;;5046643;28;19925;-77
2023/12/31 12:45:13;;;;;;;;;;;9.10;99.90;;;;;;5045107;28;19974;-77
2023/12/31 12:47:40;;;;;;;;;;;9.20;99.90;;;;;;5048471;28;20274;-77
2023/12/31 12:50:06;;;;;;;;;;;9.30;99.90;;;;;;5046653;28;20015;-76
2023/12/31 12:52:31;;;;;;;;;;;9.30;99.90;;;;;;5041245;28;20427;-77
2023/12/31 12:54:57;;;;;;;;;;;9.40;99.90;;;;;;5045708;28;19925;-76
2023/12/31 12:57:22;;;;;;;;;;;9.40;99.90;;;;;;5045946;28;20008;-76
2023/12/31 12:59:48;;;;;;;;;;;9.40;99.90;;;;;;5039549;28;19939;-77
2023/12/31 13:02:13;;;;;;;;;;;9.40;99.90;;;;;;5036497;28;20327;-77
2023/12/31 13:04:39;;;;;;;;;;;9.40;99.90;;;;;;5039659;28;20013;-77
2023/12/31 13:07:06;;;;;;;;;;;9.30;99.90;;;;;;5031646;28;19917;-78
2023/12/31 13:09:35;;;;;;;;;;;9.40;99.90;;;;;;5033177;28;19924;-78
2023/12/31 13:12:01;;;;;;;;;;;9.40;99.90;;;;;;5040939;28;19925;-78
2023/12/31 13:14:27;;;;;;;;;;;9.40;99.90;;;;;;5045881;28;19921;-79
2023/12/31 13:16:52;;;;;;;;;;;9.40;99.90;;;;;;5045750;28;19921;-77
2023/12/31 13:19:21;;;;;;;;;;;9.40;99.90;;;;;;5048213;28;19928;-78
2023/12/31 13:21:47;;;;;;;;;;;9.30;99.90;;;;;;5049884;28;20024;-77
2023/12/31 13:24:12;;;;;;;;;;;9.20;99.90;;;;;;5049948;28;19916;-76
2023/12/31 13:26:38;;;;;;;;;;;9.20;99.90;;;;;;5046297;28;19921;-78
2023/12/31 13:29:03;;;;;;;;;;;9.20;99.90;;;;;;5044407;28;19928;-76
2023/12/31 13:31:29;;;;;;;;;;;9.10;99.90;;;;;;5050080;28;20386;-78
2023/12/31 13:33:55;;;;;;;;;;;9.10;99.90;;;;;;5049750;28;19962;-77
2023/12/31 13:36:20;;;;;;;;;;;9.20;99.90;;;;;;5049431;28;20021;-77
2023/12/31 13:38:46;;;;;;;;;;;9.00;99.90;;;;;;5050223;28;19939;-78
2023/12/31 13:41:11;;;;;;;;;;;9.00;99.90;;;;;;5049796;28;19928;-76
2023/12/31 13:43:37;;;;;;;;;;;9.00;99.90;;;;;;5044701;28;20400;-79
2023/12/31 13:46:03;;;;;;;;;;;8.90;99.90;;;;;;5039456;28;19921;-78
2023/12/31 13:48:29;;;;;;;;;;;8.90;99.90;;;;;;5048109;28;19924;-79
2023/12/31 13:50:54;;;;;;;;;;;8.90;99.90;;;;;;5048055;28;20714;-79
2023/12/31 13:53:20;;;;;;;;;;;8.80;99.90;;;;;;5045958;28;19963;-79
2023/12/31 13:55:45;;;;;;;;;;;8.80;99.90;;;;;;5051305;28;20256;-78
2023/12/31 13:58:11;;;;;;;;;;;8.70;99.90;;;;;;5046956;28;19920;-78
2023/12/31 14:00:36;;;;;;;;;;;8.60;99.90;;;;;;5041997;28;19920;-79
2023/12/31 14:03:02;;;;;;;;;;;8.50;99.90;;;;;;5073399;28;20266;-78
2023/12/31 14:05:28;;;;;;;;;;;8.40;99.90;;;;;;5070531;28;19920;-78
2023/12/31 14:07:53;;;;;;;;;;;8.30;99.90;;;;;;5049192;28;19930;-78
2023/12/31 14:10:19;;;;;;;;;;;8.30;99.90;;;;;;5067206;28;19999;-78
2023/12/31 14:12:45;;;;;;;;;;;8.20;99.90;;;;;;5041603;28;19957;-78
2023/12/31 14:15:11;;;;;;;;;;;8.20;99.90;;;;;;5031459;28;19971;-78
2023/12/31 14:17:36;;;;;;;;;;;8.10;99.90;;;;;;5032411;28;20436;-78
2023/12/31 14:20:04;;;;;;;;;;;8.10;99.90;;;;;;5039953;28;20410;-79
2023/12/31 14:22:29;;;;;;;;;;;8.10;99.90;;;;;;5050488;28;19921;-78
2023/12/31 14:24:55;;;;;;;;;;;8.10;99.90;;;;;;5045019;28;19925;-78